Volga, South Dakota
Current Conditions -  °F | °C
As of 5:55 PM on Friday 24 Oct 2014 (Local Time) from KMDS Reporting Station
Clear Clear  
Wind Chill: 68°   Ceiling: Unl
Heat Index: 68°   Visibility: 10mi
Dew Point: 41°   Wind: 6mph
Humidity: 37%   Direction: 300°WNW
Pressure: 29.93"   Gusts: NA
Location:  44.32°N, 96.93°W
Report Text: KMDS 242255Z AUTO 30005KT 10SM CLR 20/05 A2993 RMK AO2
Loading
Personal Weather Stations






























Interactive Weather Map
Tropical Storm Tracking
New forecast layout! Learn more

10-Day Weather Forecast

Advertisements
Track Severe Weather on mobile